イースター島 の空港の天気 - METARとTAF

マタベリ国際空港 ( SCIP / IPC ) - チリ イースター島
飛行場実況気象(Metar)
観測時間05/30 12:00 EAT (05/30 18:00 UTC)
風向・風速東北東 4m/s
視程10km以上
天気現象
全天の4割程度の雲 雲底高度 850m
全天の8割程度の雲 雲底高度 1220m
気温22℃
湿度60%
気圧1028hPa
METARSCIP 301800Z 07007KT 9999 SCT028 BKN040 22/14 Q1028 NOSIG
過去の天気等 Google飛行場航空写真 Wunderground天気予報

過去48時間のMETAR

飛行場予報(TAF)
発表時間: 5/30 10:40 EAT (5/30 16:40 UTC)
予報対象時間: 30日12時 EAT ~ 31日12時 EAT
風向・風速東 5m/s
視程10km以上
全天の4割程度の雲 雲底高度 760m
全天の4割程度の雲 雲底高度 1220m
30日16時 EAT ~ 30日18時 EAT に徐々に
風向・風速東 3m/s
31日0時 EAT ~ 31日6時 EAT に一時的に
風向・風速不定 2m/s
視程7000m
天気現象弱いしゅう雨
31日8時 EAT ~ 31日10時 EAT に徐々に
風向・風速東 5m/s
TAF SCIP 301640Z 3018/3118 09010KT 9999 SCT025 SCT040 TX24/3020Z TN16/3110Z
BECMG 3022/3100 09005KT
TEMPO 3106/3112 VRB03KT 7000 -SHRA
BECMG 3114/3116 09010KT